Columbia — WYR2092 — position and weather

sailwx.info

Track history (hours):
 
Tides and Currents Weather Stations Pressure Air Temp Water Temp Dewpoint Dewpoint Depression Visibility Wind Speed Wind Dir Waves Ship Positions

Columbia

Owner: ALASKA, STATE OF, ANCHORAGE, AK. More information available from US FCC via Universal Licensing System and Coast Guard Vessel Documentation Center.

Last reported at 2018-Sep-23 11:54 UTC. Time now 2018-Sep-24 21:33 UTC.
Position N 54°49' W 130°60'.

Type: Ship. MMSI: 367144000.

Date/timePositionNaut miles runAvg speedWind from/ knotsBaromVisibWave heightAir tempDewpointWater temp
2018-Sep-23 11:54N 54°49' W 130°60'614.3
2018-Sep-23 11:28N 54°44' W 130°53'614.5
2018-Sep-23 11:02N 54°39' W 130°46'014.6
2018-Sep-23 11:00N 54°39' W 130°45'714.5
2018-Sep-23 10:30N 54°32' W 130°40'715.3
2018-Sep-23 10:03N 54°26' W 130°38'114.9
2018-Sep-23 10:00N 54°25' W 130°37'713.4
2018-Sep-23 09:31N 54°18' W 130°35'715.8
2018-Sep-23 09:03N 54°13' W 130°29'116.1
2018-Sep-23 09:00N 54°12' W 130°28'815.5
2018-Sep-23 08:31N 54°06' W 130°20'715.0
2018-Sep-23 08:03N 54°00' W 130°13'115.5
2018-Sep-23 08:00N 53°59' W 130°13'714.3
2018-Sep-23 07:30N 53°53' W 130°06'715.3
2018-Sep-23 07:03N 53°48' W 129°58'116.6
2018-Sep-23 07:00N 53°48' W 129°57'816.0
2018-Sep-23 06:31N 53°42' W 129°48'7414.3
2018-Sep-23 01:20N 52°43' W 128°34'514.9
2018-Sep-23 01:01N 52°38' W 128°31'016.0
2018-Sep-23 01:00N 52°38' W 128°31'815.6
2018-Sep-23 00:30N 52°31' W 128°27'715.7
2018-Sep-23 00:03N 52°24' W 128°30'116.2
2018-Sep-23 00:01N 52°23' W 128°31'714.9
2018-Sep-22 23:30N 52°16' W 128°27'716.1
2018-Sep-22 23:03N 52°14' W 128°15'116.1
2018-Sep-22 23:00N 52°14' W 128°14'511.0
2018-Sep-22 22:30N 52°11' W 128°07'3 7.6
2018-Sep-22 22:03N 52°07' W 128°08'117.0
2018-Sep-22 22:00N 52°06' W 128°08'714.9
2018-Sep-22 21:30N 52°04' W 127°56'715.8
2018-Sep-22 21:04N 51°57' W 127°56'116.1
2018-Sep-22 21:00N 51°56' W 127°56'918.0
2018-Sep-22 20:31N 51°47' W 127°55'818.6
2018-Sep-22 20:04N 51°39' W 127°54'117.3
2018-Sep-22 20:00N 51°38' W 127°53'816.5
2018-Sep-22 19:30N 51°30' W 127°52'716.3
2018-Sep-22 19:03N 51°22' W 127°52'116.3
2018-Sep-22 19:00N 51°21' W 127°52'816.3
2018-Sep-22 18:30N 51°13' W 127°51'716.4
2018-Sep-22 18:03N 51°07' W 127°45'116.4
2018-Sep-22 18:00N 51°06' W 127°44'816.5
2018-Sep-22 17:30N 51°00' W 127°36'3016.6
2018-Sep-22 15:42N 50°43' W 126°57'316.1
2018-Sep-22 15:30N 50°41' W 126°53'1115.9
2018-Sep-22 14:50N 50°33' W 126°41'1215.3
2018-Sep-22 14:03N 50°30' W 126°23'3716.6
2018-Sep-22 11:48N 50°20' W 125°27'515.4
2018-Sep-22 11:30N 50°16' W 125°24'716.7
2018-Sep-22 11:03N 50°09' W 125°21'115.8
2018-Sep-22 11:00N 50°08' W 125°21'714.0
2018-Sep-22 10:30N 50°03' W 125°14'613.0
2018-Sep-22 10:02N 49°58' W 125°09'115.1
2018-Sep-22 10:00N 49°57' W 125°08'715.3
2018-Sep-22 09:30N 49°52' W 125°00'715.3
2018-Sep-22 09:03N 49°47' W 124°53'115.7
2018-Sep-22 09:00N 49°46' W 124°52'815.1
2018-Sep-22 08:30N 49°41' W 124°43'715.2
2018-Sep-22 08:03N 49°36' W 124°36'115.1
2018-Sep-22 08:00N 49°36' W 124°35'815.5
2018-Sep-22 07:29N 49°30' W 124°26'715.2
2018-Sep-22 07:03N 49°26' W 124°18'115.1
2018-Sep-22 06:59N 49°26' W 124°17'815.4
2018-Sep-22 06:30N 49°24' W 124°06'715.4
2018-Sep-22 06:02N 49°22' W 123°55'015.2
2018-Sep-22 06:00N 49°21' W 123°55'815.5
2018-Sep-22 05:31N 49°18' W 123°44'715.9
2018-Sep-22 05:03N 49°13' W 123°35'116.3
2018-Sep-22 05:00N 49°13' W 123°35'815.8
2018-Sep-22 04:28N 49°07' W 123°25'715.9
2018-Sep-22 04:03N 49°03' W 123°18'115.9
2018-Sep-22 04:00N 49°02' W 123°17'815.9
2018-Sep-22 03:30N 48°57' W 123°08'715.8
2018-Sep-22 03:03N 48°52' W 123°00'115.8
2018-Sep-22 03:00N 48°52' W 122°59'915.8
2018-Sep-22 02:27N 48°46' W 122°48'615.3
2018-Sep-22 02:03N 48°42' W 122°43'116.1
2018-Sep-22 02:00N 48°41' W 122°42'611.4
2018-Sep-22 01:30N 48°40' W 122°33'4 0.4
2018-Sep-21 16:41N 48°43' W 122°31'0 0.0
2018-Sep-21 16:29N 48°43' W 122°31'0 0.0
2018-Sep-21 15:59N 48°43' W 122°31'0 0.0
2018-Sep-21 14:56N 48°43' W 122°31'2 3.4
2018-Sep-21 14:27N 48°42' W 122°33'9 9.3
2018-Sep-21 13:30N 48°44' W 122°46'715.3
2018-Sep-21 13:03N 48°48' W 122°54'116.4
2018-Sep-21 13:00N 48°48' W 122°55'917.5
2018-Sep-21 12:30N 48°53' W 123°06'715.9
2018-Sep-21 12:03N 48°58' W 123°14'114.4
2018-Sep-21 12:00N 48°58' W 123°15'714.6
2018-Sep-21 11:30N 49°03' W 123°24'714.7
2018-Sep-21 11:03N 49°08' W 123°30'114.4
2018-Sep-21 11:00N 49°08' W 123°31'714.6
2018-Sep-21 10:30N 49°14' W 123°39'714.6
2018-Sep-21 10:03N 49°19' W 123°46'114.6
2018-Sep-21 10:00N 49°19' W 123°46'714.1
2018-Sep-21 09:30N 49°23' W 123°56'714.7
2018-Sep-21 09:03N 49°24' W 124°06'114.4
2018-Sep-21 09:00N 49°24' W 124°07'714.7
2018-Sep-21 08:30N 49°26' W 124°18'813.7
2018-Sep-21 07:53N 49°31' W 124°28'613.6
2018-Sep-21 07:27N 49°35' W 124°34'513.3
2018-Sep-21 07:03N 49°39' W 124°40'113.2
2018-Sep-21 07:00N 49°39' W 124°41'713.6
2018-Sep-21 06:30N 49°44' W 124°48'713.6
2018-Sep-21 06:02N 49°49' W 124°55'012.9
2018-Sep-21 06:00N 49°49' W 124°56'713.3
2018-Sep-21 05:30N 49°54' W 125°03'612.1
2018-Sep-21 05:03N 49°58' W 125°09'111.4
2018-Sep-21 04:59N 49°58' W 125°10'613.1
2018-Sep-21 04:30N 50°04' W 125°15'612.5
2018-Sep-21 04:03N 50°07' W 125°21'114.7
2018-Sep-21 04:00N 50°08' W 125°21'914.7
2018-Sep-21 03:24N 50°17' W 125°24'6115.2
2018-Sep-20 23:24N 50°41' W 126°52'617.6
2018-Sep-20 23:03N 50°45' W 126°60'117.8
2018-Sep-20 22:58N 50°45' W 127°02'817.4
2018-Sep-20 22:30N 50°50' W 127°12'817.6
2018-Sep-20 22:03N 50°54' W 127°23'117.6
2018-Sep-20 22:00N 50°55' W 127°24'816.9
2018-Sep-20 21:30N 50°59' W 127°35'817.2
2018-Sep-20 21:03N 51°05' W 127°43'118.0
2018-Sep-20 21:00N 51°06' W 127°44'917.1
2018-Sep-20 20:30N 51°13' W 127°52'817.1
2018-Sep-20 20:03N 51°21' W 127°52'117.3
2018-Sep-20 20:00N 51°22' W 127°52'917.4
2018-Sep-20 19:31N 51°30' W 127°52'817.6
2018-Sep-20 19:03N 51°38' W 127°54'117.4
2018-Sep-20 19:00N 51°39' W 127°54'918.5
2018-Sep-20 18:30N 51°48' W 127°55'817.7
2018-Sep-20 18:03N 51°56' W 127°56'117.8
2018-Sep-20 18:00N 51°57' W 127°56'815.4
2018-Sep-20 17:30N 52°05' W 127°59'614.3
2018-Sep-20 17:04N 52°08' W 128°08'112.7
2018-Sep-20 17:00N 52°09' W 128°08'3 6.6
2018-Sep-20 16:30N 52°12' W 128°06'816.9
2018-Sep-20 16:03N 52°15' W 128°18'117.6
2018-Sep-20 16:00N 52°15' W 128°19'816.7
2018-Sep-20 15:30N 52°17' W 128°32'817.6
2018-Sep-20 15:03N 52°25' W 128°30'118.1
2018-Sep-20 15:00N 52°26' W 128°29'1717.0
2018-Sep-20 14:01N 52°42' W 128°34'018.2
2018-Sep-20 14:00N 52°43' W 128°34'7315.9
2018-Sep-20 09:23N 53°41' W 129°47'717.7
2018-Sep-20 09:01N 53°46' W 129°55'014.4
2018-Sep-20 09:00N 53°46' W 129°55'917.7
2018-Sep-20 08:30N 53°53' W 130°05'716.5
2018-Sep-20 08:03N 53°59' W 130°13'117.9
2018-Sep-20 08:00N 53°59' W 130°13'816.9
2018-Sep-20 07:30N 54°06' W 130°21'817.7
2018-Sep-20 07:03N 54°13' W 130°29'117.7
2018-Sep-20 07:00N 54°13' W 130°30'917.3
2018-Sep-20 06:30N 54°21' W 130°36'817.8
2018-Sep-20 06:03N 54°29' W 130°39'118.0
2018-Sep-20 06:00N 54°30' W 130°39'917.5
2018-Sep-20 05:30N 54°38' W 130°45'818.1
2018-Sep-20 05:03N 54°44' W 130°54'118.0
2018-Sep-20 05:00N 54°45' W 130°55'  
2018-Sep-16 11:47N 54°52' W 131°01'514.0
2018-Sep-16 11:26N 54°48' W 130°58'614.2
2018-Sep-16 11:01N 54°44' W 130°51'113.8
2018-Sep-16 10:59N 54°43' W 130°51'714.1
2018-Sep-16 10:30N 54°39' W 130°42'714.5
2018-Sep-16 10:03N 54°32' W 130°39'115.1
2018-Sep-16 10:00N 54°32' W 130°39'815.0
2018-Sep-16 09:30N 54°24' W 130°37'714.9
2018-Sep-16 09:03N 54°18' W 130°34'114.7
2018-Sep-16 09:00N 54°17' W 130°33'715.0
2018-Sep-16 08:30N 54°11' W 130°27'614.2
2018-Sep-16 08:03N 54°06' W 130°20'116.0
2018-Sep-16 08:00N 54°05' W 130°19'815.9
2018-Sep-16 07:30N 53°58' W 130°12'715.5
2018-Sep-16 07:03N 53°53' W 130°05'116.3
2018-Sep-16 07:00N 53°52' W 130°04'816.4
2018-Sep-16 06:30N 53°46' W 129°54'8714.8
2018-Sep-16 00:37N 52°36' W 128°28'216.6
2018-Sep-16 00:29N 52°34' W 128°28'716.1
2018-Sep-16 00:03N 52°27' W 128°28'116.6
2018-Sep-16 00:00N 52°26' W 128°28'714.5
2018-Sep-15 23:30N 52°19' W 128°30'715.5
2018-Sep-15 23:03N 52°15' W 128°20'116.0
2018-Sep-15 23:00N 52°15' W 128°19'816.1
2018-Sep-15 22:30N 52°12' W 128°07'4 8.0
2018-Sep-15 22:03N 52°08' W 128°08'0 8.3
2018-Sep-15 22:01N 52°08' W 128°08'611.8
2018-Sep-15 21:30N 52°05' W 127°60'613.1
2018-Sep-15 21:04N 51°60' W 127°56'115.2
2018-Sep-15 21:01N 51°59' W 127°56'815.9
2018-Sep-15 20:31N 51°51' W 127°55'716.0
2018-Sep-15 20:03N 51°44' W 127°55'116.1
2018-Sep-15 20:01N 51°43' W 127°55'815.8
2018-Sep-15 19:30N 51°35' W 127°54'715.6
2018-Sep-15 19:03N 51°28' W 127°52'115.8
2018-Sep-15 19:00N 51°27' W 127°52'815.8
2018-Sep-15 18:30N 51°19' W 127°53'716.2
2018-Sep-15 18:04N 51°12' W 127°51'116.3
2018-Sep-15 18:00N 51°11' W 127°50'3316.0
2018-Sep-15 15:57N 50°50' W 127°11'716.5
2018-Sep-15 15:30N 50°45' W 127°02'816.5
2018-Sep-15 15:00N 50°40' W 126°51'916.2
2018-Sep-15 14:28N 50°34' W 126°41'613.2
2018-Sep-15 14:00N 50°30' W 126°34'816.5
2018-Sep-15 13:30N 50°30' W 126°21'2216.1
2018-Sep-15 12:08N 50°23' W 125°48'1015.8
2018-Sep-15 11:28N 50°21' W 125°32'613.6
2018-Sep-15 11:03N 50°18' W 125°25'116.3
2018-Sep-15 11:00N 50°17' W 125°24'817.1
2018-Sep-15 10:30N 50°09' W 125°21'715.5
2018-Sep-15 10:03N 50°03' W 125°15'112.5
2018-Sep-15 10:00N 50°03' W 125°14'815.1
2018-Sep-15 09:30N 49°57' W 125°07'818.2
2018-Sep-15 09:03N 49°51' W 124°58'118.5
2018-Sep-15 09:00N 49°50' W 124°57'917.9
2018-Sep-15 08:30N 49°44' W 124°47'817.3
2018-Sep-15 08:04N 49°39' W 124°39'117.4
2018-Sep-15 08:01N 49°38' W 124°38'917.3
2018-Sep-15 07:28N 49°31' W 124°27'717.3
2018-Sep-15 07:03N 49°26' W 124°20'117.4
2018-Sep-15 07:00N 49°26' W 124°19'917.3
2018-Sep-15 06:30N 49°24' W 124°06'817.4
2018-Sep-15 06:03N 49°22' W 123°54'117.9
2018-Sep-15 06:00N 49°22' W 123°53'816.8
2018-Sep-15 05:30N 49°18' W 123°42'817.3
2018-Sep-15 05:03N 49°12' W 123°33'117.3
2018-Sep-15 05:00N 49°11' W 123°32'917.7
2018-Sep-15 04:30N 49°05' W 123°22'817.3
2018-Sep-15 04:03N 48°60' W 123°14'117.6
2018-Sep-15 04:00N 48°59' W 123°13'917.3
2018-Sep-15 03:30N 48°54' W 123°03'917.4
2018-Sep-15 03:00N 48°48' W 122°53'816.8
2018-Sep-15 02:30N 48°42' W 122°43'716.2
2018-Sep-15 02:04N 48°38' W 122°34'116.8
2018-Sep-15 02:00N 48°39' W 122°34'5 1.3
2018-Sep-14 22:18N 48°43' W 122°31'0 0.0
2018-Sep-14 17:40N 48°43' W 122°31'1 3.8
2018-Sep-14 17:20N 48°43' W 122°32'517.7
2018-Sep-14 17:01N 48°38' W 122°36'119.3
2018-Sep-14 16:59N 48°37' W 122°37'917.6
2018-Sep-14 16:29N 48°44' W 122°46'818.0
2018-Sep-14 16:03N 48°48' W 122°56'118.2
2018-Sep-14 16:00N 48°49' W 122°57'918.3
2018-Sep-14 15:30N 48°54' W 123°08'818.7
2018-Sep-14 15:03N 48°60' W 123°18'118.5
2018-Sep-14 15:00N 49°00' W 123°19'918.6
2018-Sep-14 14:30N 49°06' W 123°29'918.5
2018-Sep-14 14:00N 49°12' W 123°40'919.0
2018-Sep-14 13:30N 49°16' W 123°54'818.4
2018-Sep-14 13:03N 49°21' W 124°04'118.4
2018-Sep-14 13:00N 49°21' W 124°06'918.5
2018-Sep-14 12:30N 49°26' W 124°18'918.9
2018-Sep-14 12:01N 49°32' W 124°29'019.6
2018-Sep-14 12:00N 49°32' W 124°29'919.2
2018-Sep-14 11:30N 49°39' W 124°40'919.5
2018-Sep-14 11:03N 49°45' W 124°49'119.7
2018-Sep-14 11:00N 49°45' W 124°50'1019.2
2018-Sep-14 10:30N 49°52' W 125°01'817.3
2018-Sep-14 10:03N 49°58' W 125°09'119.1
2018-Sep-14 09:59N 49°59' W 125°11'613.5
2018-Sep-14 09:31N 50°04' W 125°16'613.3
2018-Sep-14 09:03N 50°09' W 125°21'117.4
2018-Sep-14 09:00N 50°10' W 125°21'917.6
2018-Sep-14 08:31N 50°18' W 125°25'1114.7
2018-Sep-14 07:47N 50°22' W 125°41'1915.8
2018-Sep-14 06:34N 50°28' W 126°09'717.9
2018-Sep-14 06:10N 50°30' W 126°20'417.9
2018-Sep-14 05:57N 50°30' W 126°26'917.7
2018-Sep-14 05:28N 50°32' W 126°40'614.7
2018-Sep-14 05:02N 50°37' W 126°46'718.7
2018-Sep-14 04:39N 50°42' W 126°54'318.8
2018-Sep-14 04:30N 50°44' W 126°57'818.1
2018-Sep-14 04:03N 50°49' W 127°08'118.2
2018-Sep-14 04:00N 50°49' W 127°09'918.5
2018-Sep-14 03:30N 50°54' W 127°21'817.6
2018-Sep-14 03:03N 50°58' W 127°31'118.2
2018-Sep-14 03:00N 50°59' W 127°33'918.0
2018-Sep-14 02:30N 51°05' W 127°43'818.0
2018-Sep-14 02:04N 51°11' W 127°51'119.1
2018-Sep-14 02:00N 51°12' W 127°51'918.7
2018-Sep-14 01:30N 51°22' W 127°52'919.7
2018-Sep-14 01:03N 51°30' W 127°52'119.3
2018-Sep-14 01:00N 51°31' W 127°52'1019.5
2018-Sep-14 00:30N 51°41' W 127°55'919.4
2018-Sep-14 00:04N 51°50' W 127°56'119.7
2018-Sep-14 00:01N 51°51' W 127°56'1019.9
2018-Sep-13 23:31N 52°01' W 127°55'714.6
2018-Sep-13 23:03N 52°05' W 128°04'119.3
2018-Sep-13 23:01N 52°05' W 128°05'611.2
2018-Sep-13 22:30N 52°10' W 128°07'511.3
2018-Sep-13 22:03N 52°14' W 128°13'119.5
2018-Sep-13 22:00N 52°14' W 128°15'917.8
2018-Sep-13 21:30N 52°18' W 128°28'816.7
2018-Sep-13 21:03N 52°25' W 128°29'118.7
2018-Sep-13 21:00N 52°26' W 128°29'918.6
2018-Sep-13 20:30N 52°36' W 128°28'8217.2
2018-Sep-13 15:44N 53°42' W 129°48'519.5
2018-Sep-13 15:30N 53°45' W 129°53'919.7
2018-Sep-13 15:03N 53°52' W 130°03'120.0
2018-Sep-13 15:00N 53°52' W 130°05'1718.1
2018-Sep-13 14:03N 54°06' W 130°22'118.7
2018-Sep-13 14:00N 54°07' W 130°23'918.5
2018-Sep-13 13:30N 54°15' W 130°31'818.0
2018-Sep-13 13:03N 54°22' W 130°37'118.5
2018-Sep-13 13:00N 54°23' W 130°37'918.8
2018-Sep-13 12:30N 54°32' W 130°40'818.1
2018-Sep-13 12:02N 54°40' W 130°47'117.7
2018-Sep-13 12:00N 54°40' W 130°48'  
Track history (hours):
 
Tides and Currents Weather Stations Pressure Air Temp Water Temp Dewpoint Dewpoint Depression Visibility Wind Speed Wind Dir Waves Ship Positions

Columbia

Owner: ALASKA, STATE OF, ANCHORAGE, AK. More information available from US FCC via Universal Licensing System and Coast Guard Vessel Documentation Center.

Last reported at 2018-Sep-23 11:54 UTC. Time now 2018-Sep-24 21:33 UTC.
Position N 54°49' W 130°60'.

Type: Ship. MMSI: 367144000.

Date/timePositionNaut miles runAvg speedWind from/ knotsBaromVisibWave heightAir tempDewpointWater temp
2018-Sep-23 11:54N 54°49' W 130°60'614.3
2018-Sep-23 11:28N 54°44' W 130°53'614.5
2018-Sep-23 11:02N 54°39' W 130°46'014.6
2018-Sep-23 11:00N 54°39' W 130°45'714.5
2018-Sep-23 10:30N 54°32' W 130°40'715.3
2018-Sep-23 10:03N 54°26' W 130°38'114.9
2018-Sep-23 10:00N 54°25' W 130°37'713.4
2018-Sep-23 09:31N 54°18' W 130°35'715.8
2018-Sep-23 09:03N 54°13' W 130°29'116.1
2018-Sep-23 09:00N 54°12' W 130°28'815.5
2018-Sep-23 08:31N 54°06' W 130°20'715.0
2018-Sep-23 08:03N 54°00' W 130°13'115.5
2018-Sep-23 08:00N 53°59' W 130°13'714.3
2018-Sep-23 07:30N 53°53' W 130°06'715.3
2018-Sep-23 07:03N 53°48' W 129°58'116.6
2018-Sep-23 07:00N 53°48' W 129°57'816.0
2018-Sep-23 06:31N 53°42' W 129°48'7414.3
2018-Sep-23 01:20N 52°43' W 128°34'514.9
2018-Sep-23 01:01N 52°38' W 128°31'016.0
2018-Sep-23 01:00N 52°38' W 128°31'815.6
2018-Sep-23 00:30N 52°31' W 128°27'715.7
2018-Sep-23 00:03N 52°24' W 128°30'116.2
2018-Sep-23 00:01N 52°23' W 128°31'714.9
2018-Sep-22 23:30N 52°16' W 128°27'716.1
2018-Sep-22 23:03N 52°14' W 128°15'116.1
2018-Sep-22 23:00N 52°14' W 128°14'511.0
2018-Sep-22 22:30N 52°11' W 128°07'3 7.6
2018-Sep-22 22:03N 52°07' W 128°08'117.0
2018-Sep-22 22:00N 52°06' W 128°08'714.9
2018-Sep-22 21:30N 52°04' W 127°56'715.8
2018-Sep-22 21:04N 51°57' W 127°56'116.1
2018-Sep-22 21:00N 51°56' W 127°56'918.0
2018-Sep-22 20:31N 51°47' W 127°55'818.6
2018-Sep-22 20:04N 51°39' W 127°54'117.3
2018-Sep-22 20:00N 51°38' W 127°53'816.5
2018-Sep-22 19:30N 51°30' W 127°52'716.3
2018-Sep-22 19:03N 51°22' W 127°52'116.3
2018-Sep-22 19:00N 51°21' W 127°52'816.3
2018-Sep-22 18:30N 51°13' W 127°51'716.4
2018-Sep-22 18:03N 51°07' W 127°45'116.4
2018-Sep-22 18:00N 51°06' W 127°44'816.5
2018-Sep-22 17:30N 51°00' W 127°36'3016.6
2018-Sep-22 15:42N 50°43' W 126°57'316.1
2018-Sep-22 15:30N 50°41' W 126°53'1115.9
2018-Sep-22 14:50N 50°33' W 126°41'1215.3
2018-Sep-22 14:03N 50°30' W 126°23'3716.6
2018-Sep-22 11:48N 50°20' W 125°27'515.4
2018-Sep-22 11:30N 50°16' W 125°24'716.7
2018-Sep-22 11:03N 50°09' W 125°21'115.8
2018-Sep-22 11:00N 50°08' W 125°21'714.0
2018-Sep-22 10:30N 50°03' W 125°14'613.0
2018-Sep-22 10:02N 49°58' W 125°09'115.1
2018-Sep-22 10:00N 49°57' W 125°08'715.3
2018-Sep-22 09:30N 49°52' W 125°00'715.3
2018-Sep-22 09:03N 49°47' W 124°53'115.7
2018-Sep-22 09:00N 49°46' W 124°52'815.1
2018-Sep-22 08:30N 49°41' W 124°43'715.2
2018-Sep-22 08:03N 49°36' W 124°36'115.1
2018-Sep-22 08:00N 49°36' W 124°35'815.5
2018-Sep-22 07:29N 49°30' W 124°26'715.2
2018-Sep-22 07:03N 49°26' W 124°18'115.1
2018-Sep-22 06:59N 49°26' W 124°17'815.4
2018-Sep-22 06:30N 49°24' W 124°06'715.4
2018-Sep-22 06:02N 49°22' W 123°55'015.2
2018-Sep-22 06:00N 49°21' W 123°55'815.5
2018-Sep-22 05:31N 49°18' W 123°44'715.9
2018-Sep-22 05:03N 49°13' W 123°35'116.3
2018-Sep-22 05:00N 49°13' W 123°35'815.8
2018-Sep-22 04:28N 49°07' W 123°25'715.9
2018-Sep-22 04:03N 49°03' W 123°18'115.9
2018-Sep-22 04:00N 49°02' W 123°17'815.9
2018-Sep-22 03:30N 48°57' W 123°08'715.8
2018-Sep-22 03:03N 48°52' W 123°00'115.8
2018-Sep-22 03:00N 48°52' W 122°59'915.8
2018-Sep-22 02:27N 48°46' W 122°48'615.3
2018-Sep-22 02:03N 48°42' W 122°43'116.1
2018-Sep-22 02:00N 48°41' W 122°42'611.4
2018-Sep-22 01:30N 48°40' W 122°33'4 0.4
2018-Sep-21 16:41N 48°43' W 122°31'0 0.0
2018-Sep-21 16:29N 48°43' W 122°31'0 0.0
2018-Sep-21 15:59N 48°43' W 122°31'0 0.0
2018-Sep-21 14:56N 48°43' W 122°31'2 3.4
2018-Sep-21 14:27N 48°42' W 122°33'9 9.3
2018-Sep-21 13:30N 48°44' W 122°46'715.3
2018-Sep-21 13:03N 48°48' W 122°54'116.4
2018-Sep-21 13:00N 48°48' W 122°55'917.5
2018-Sep-21 12:30N 48°53' W 123°06'715.9
2018-Sep-21 12:03N 48°58' W 123°14'114.4
2018-Sep-21 12:00N 48°58' W 123°15'714.6
2018-Sep-21 11:30N 49°03' W 123°24'714.7
2018-Sep-21 11:03N 49°08' W 123°30'114.4
2018-Sep-21 11:00N 49°08' W 123°31'714.6
2018-Sep-21 10:30N 49°14' W 123°39'714.6
2018-Sep-21 10:03N 49°19' W 123°46'114.6
2018-Sep-21 10:00N 49°19' W 123°46'714.1
2018-Sep-21 09:30N 49°23' W 123°56'714.7
2018-Sep-21 09:03N 49°24' W 124°06'114.4
2018-Sep-21 09:00N 49°24' W 124°07'714.7
2018-Sep-21 08:30N 49°26' W 124°18'813.7
2018-Sep-21 07:53N 49°31' W 124°28'613.6
2018-Sep-21 07:27N 49°35' W 124°34'513.3
2018-Sep-21 07:03N 49°39' W 124°40'113.2
2018-Sep-21 07:00N 49°39' W 124°41'713.6
2018-Sep-21 06:30N 49°44' W 124°48'713.6
2018-Sep-21 06:02N 49°49' W 124°55'012.9
2018-Sep-21 06:00N 49°49' W 124°56'713.3
2018-Sep-21 05:30N 49°54' W 125°03'612.1
2018-Sep-21 05:03N 49°58' W 125°09'111.4
2018-Sep-21 04:59N 49°58' W 125°10'613.1
2018-Sep-21 04:30N 50°04' W 125°15'612.5
2018-Sep-21 04:03N 50°07' W 125°21'114.7
2018-Sep-21 04:00N 50°08' W 125°21'914.7
2018-Sep-21 03:24N 50°17' W 125°24'6115.2
2018-Sep-20 23:24N 50°41' W 126°52'617.6
2018-Sep-20 23:03N 50°45' W 126°60'117.8
2018-Sep-20 22:58N 50°45' W 127°02'817.4
2018-Sep-20 22:30N 50°50' W 127°12'817.6
2018-Sep-20 22:03N 50°54' W 127°23'117.6
2018-Sep-20 22:00N 50°55' W 127°24'816.9
2018-Sep-20 21:30N 50°59' W 127°35'817.2
2018-Sep-20 21:03N 51°05' W 127°43'118.0
2018-Sep-20 21:00N 51°06' W 127°44'917.1
2018-Sep-20 20:30N 51°13' W 127°52'817.1
2018-Sep-20 20:03N 51°21' W 127°52'117.3
2018-Sep-20 20:00N 51°22' W 127°52'917.4
2018-Sep-20 19:31N 51°30' W 127°52'817.6
2018-Sep-20 19:03N 51°38' W 127°54'117.4
2018-Sep-20 19:00N 51°39' W 127°54'918.5
2018-Sep-20 18:30N 51°48' W 127°55'817.7
2018-Sep-20 18:03N 51°56' W 127°56'117.8
2018-Sep-20 18:00N 51°57' W 127°56'815.4
2018-Sep-20 17:30N 52°05' W 127°59'614.3
2018-Sep-20 17:04N 52°08' W 128°08'112.7
2018-Sep-20 17:00N 52°09' W 128°08'3 6.6
2018-Sep-20 16:30N 52°12' W 128°06'816.9
2018-Sep-20 16:03N 52°15' W 128°18'117.6
2018-Sep-20 16:00N 52°15' W 128°19'816.7
2018-Sep-20 15:30N 52°17' W 128°32'817.6
2018-Sep-20 15:03N 52°25' W 128°30'118.1
2018-Sep-20 15:00N 52°26' W 128°29'1717.0
2018-Sep-20 14:01N 52°42' W 128°34'018.2
2018-Sep-20 14:00N 52°43' W 128°34'7315.9
2018-Sep-20 09:23N 53°41' W 129°47'717.7
2018-Sep-20 09:01N 53°46' W 129°55'014.4
2018-Sep-20 09:00N 53°46' W 129°55'917.7
2018-Sep-20 08:30N 53°53' W 130°05'716.5
2018-Sep-20 08:03N 53°59' W 130°13'117.9
2018-Sep-20 08:00N 53°59' W 130°13'816.9
2018-Sep-20 07:30N 54°06' W 130°21'817.7
2018-Sep-20 07:03N 54°13' W 130°29'117.7
2018-Sep-20 07:00N 54°13' W 130°30'917.3
2018-Sep-20 06:30N 54°21' W 130°36'817.8
2018-Sep-20 06:03N 54°29' W 130°39'118.0
2018-Sep-20 06:00N 54°30' W 130°39'917.5
2018-Sep-20 05:30N 54°38' W 130°45'818.1
2018-Sep-20 05:03N 54°44' W 130°54'118.0
2018-Sep-20 05:00N 54°45' W 130°55'  
2018-Sep-16 11:47N 54°52' W 131°01'514.0
2018-Sep-16 11:26N 54°48' W 130°58'614.2
2018-Sep-16 11:01N 54°44' W 130°51'113.8
2018-Sep-16 10:59N 54°43' W 130°51'714.1
2018-Sep-16 10:30N 54°39' W 130°42'714.5
2018-Sep-16 10:03N 54°32' W 130°39'115.1
2018-Sep-16 10:00N 54°32' W 130°39'815.0
2018-Sep-16 09:30N 54°24' W 130°37'714.9
2018-Sep-16 09:03N 54°18' W 130°34'114.7
2018-Sep-16 09:00N 54°17' W 130°33'715.0
2018-Sep-16 08:30N 54°11' W 130°27'614.2
2018-Sep-16 08:03N 54°06' W 130°20'116.0
2018-Sep-16 08:00N 54°05' W 130°19'815.9
2018-Sep-16 07:30N 53°58' W 130°12'715.5
2018-Sep-16 07:03N 53°53' W 130°05'116.3
2018-Sep-16 07:00N 53°52' W 130°04'816.4
2018-Sep-16 06:30N 53°46' W 129°54'8714.8
2018-Sep-16 00:37N 52°36' W 128°28'216.6
2018-Sep-16 00:29N 52°34' W 128°28'716.1
2018-Sep-16 00:03N 52°27' W 128°28'116.6
2018-Sep-16 00:00N 52°26' W 128°28'714.5
2018-Sep-15 23:30N 52°19' W 128°30'715.5
2018-Sep-15 23:03N 52°15' W 128°20'116.0
2018-Sep-15 23:00N 52°15' W 128°19'816.1
2018-Sep-15 22:30N 52°12' W 128°07'4 8.0
2018-Sep-15 22:03N 52°08' W 128°08'0 8.3
2018-Sep-15 22:01N 52°08' W 128°08'611.8
2018-Sep-15 21:30N 52°05' W 127°60'613.1
2018-Sep-15 21:04N 51°60' W 127°56'115.2
2018-Sep-15 21:01N 51°59' W 127°56'815.9
2018-Sep-15 20:31N 51°51' W 127°55'716.0
2018-Sep-15 20:03N 51°44' W 127°55'116.1
2018-Sep-15 20:01N 51°43' W 127°55'815.8
2018-Sep-15 19:30N 51°35' W 127°54'715.6
2018-Sep-15 19:03N 51°28' W 127°52'115.8
2018-Sep-15 19:00N 51°27' W 127°52'815.8
2018-Sep-15 18:30N 51°19' W 127°53'716.2
2018-Sep-15 18:04N 51°12' W 127°51'116.3
2018-Sep-15 18:00N 51°11' W 127°50'3316.0
2018-Sep-15 15:57N 50°50' W 127°11'716.5
2018-Sep-15 15:30N 50°45' W 127°02'816.5
2018-Sep-15 15:00N 50°40' W 126°51'916.2
2018-Sep-15 14:28N 50°34' W 126°41'613.2
2018-Sep-15 14:00N 50°30' W 126°34'816.5
2018-Sep-15 13:30N 50°30' W 126°21'2216.1
2018-Sep-15 12:08N 50°23' W 125°48'1015.8
2018-Sep-15 11:28N 50°21' W 125°32'613.6
2018-Sep-15 11:03N 50°18' W 125°25'116.3
2018-Sep-15 11:00N 50°17' W 125°24'817.1
2018-Sep-15 10:30N 50°09' W 125°21'715.5
2018-Sep-15 10:03N 50°03' W 125°15'112.5
2018-Sep-15 10:00N 50°03' W 125°14'815.1
2018-Sep-15 09:30N 49°57' W 125°07'818.2
2018-Sep-15 09:03N 49°51' W 124°58'118.5
2018-Sep-15 09:00N 49°50' W 124°57'917.9
2018-Sep-15 08:30N 49°44' W 124°47'817.3
2018-Sep-15 08:04N 49°39' W 124°39'117.4
2018-Sep-15 08:01N 49°38' W 124°38'917.3
2018-Sep-15 07:28N 49°31' W 124°27'717.3
2018-Sep-15 07:03N 49°26' W 124°20'117.4
2018-Sep-15 07:00N 49°26' W 124°19'917.3
2018-Sep-15 06:30N 49°24' W 124°06'817.4
2018-Sep-15 06:03N 49°22' W 123°54'117.9
2018-Sep-15 06:00N 49°22' W 123°53'816.8
2018-Sep-15 05:30N 49°18' W 123°42'817.3
2018-Sep-15 05:03N 49°12' W 123°33'117.3
2018-Sep-15 05:00N 49°11' W 123°32'917.7
2018-Sep-15 04:30N 49°05' W 123°22'817.3
2018-Sep-15 04:03N 48°60' W 123°14'117.6
2018-Sep-15 04:00N 48°59' W 123°13'917.3
2018-Sep-15 03:30N 48°54' W 123°03'917.4
2018-Sep-15 03:00N 48°48' W 122°53'816.8
2018-Sep-15 02:30N 48°42' W 122°43'716.2
2018-Sep-15 02:04N 48°38' W 122°34'116.8
2018-Sep-15 02:00N 48°39' W 122°34'5 1.3
2018-Sep-14 22:18N 48°43' W 122°31'0 0.0
2018-Sep-14 17:40N 48°43' W 122°31'1 3.8
2018-Sep-14 17:20N 48°43' W 122°32'517.7
2018-Sep-14 17:01N 48°38' W 122°36'119.3
2018-Sep-14 16:59N 48°37' W 122°37'917.6
2018-Sep-14 16:29N 48°44' W 122°46'818.0
2018-Sep-14 16:03N 48°48' W 122°56'118.2
2018-Sep-14 16:00N 48°49' W 122°57'918.3
2018-Sep-14 15:30N 48°54' W 123°08'818.7
2018-Sep-14 15:03N 48°60' W 123°18'118.5
2018-Sep-14 15:00N 49°00' W 123°19'918.6
2018-Sep-14 14:30N 49°06' W 123°29'918.5
2018-Sep-14 14:00N 49°12' W 123°40'919.0
2018-Sep-14 13:30N 49°16' W 123°54'818.4
2018-Sep-14 13:03N 49°21' W 124°04'118.4
2018-Sep-14 13:00N 49°21' W 124°06'918.5
2018-Sep-14 12:30N 49°26' W 124°18'918.9
2018-Sep-14 12:01N 49°32' W 124°29'019.6
2018-Sep-14 12:00N 49°32' W 124°29'919.2
2018-Sep-14 11:30N 49°39' W 124°40'919.5
2018-Sep-14 11:03N 49°45' W 124°49'119.7
2018-Sep-14 11:00N 49°45' W 124°50'1019.2
2018-Sep-14 10:30N 49°52' W 125°01'817.3
2018-Sep-14 10:03N 49°58' W 125°09'119.1
2018-Sep-14 09:59N 49°59' W 125°11'613.5
2018-Sep-14 09:31N 50°04' W 125°16'613.3
2018-Sep-14 09:03N 50°09' W 125°21'117.4
2018-Sep-14 09:00N 50°10' W 125°21'917.6
2018-Sep-14 08:31N 50°18' W 125°25'1114.7
2018-Sep-14 07:47N 50°22' W 125°41'1915.8
2018-Sep-14 06:34N 50°28' W 126°09'717.9
2018-Sep-14 06:10N 50°30' W 126°20'417.9
2018-Sep-14 05:57N 50°30' W 126°26'917.7
2018-Sep-14 05:28N 50°32' W 126°40'614.7
2018-Sep-14 05:02N 50°37' W 126°46'718.7
2018-Sep-14 04:39N 50°42' W 126°54'318.8
2018-Sep-14 04:30N 50°44' W 126°57'818.1
2018-Sep-14 04:03N 50°49' W 127°08'118.2
2018-Sep-14 04:00N 50°49' W 127°09'918.5
2018-Sep-14 03:30N 50°54' W 127°21'817.6
2018-Sep-14 03:03N 50°58' W 127°31'118.2
2018-Sep-14 03:00N 50°59' W 127°33'918.0
2018-Sep-14 02:30N 51°05' W 127°43'818.0
2018-Sep-14 02:04N 51°11' W 127°51'119.1
2018-Sep-14 02:00N 51°12' W 127°51'918.7
2018-Sep-14 01:30N 51°22' W 127°52'919.7
2018-Sep-14 01:03N 51°30' W 127°52'119.3
2018-Sep-14 01:00N 51°31' W 127°52'1019.5
2018-Sep-14 00:30N 51°41' W 127°55'919.4
2018-Sep-14 00:04N 51°50' W 127°56'119.7
2018-Sep-14 00:01N 51°51' W 127°56'1019.9
2018-Sep-13 23:31N 52°01' W 127°55'714.6
2018-Sep-13 23:03N 52°05' W 128°04'119.3
2018-Sep-13 23:01N 52°05' W 128°05'611.2
2018-Sep-13 22:30N 52°10' W 128°07'511.3
2018-Sep-13 22:03N 52°14' W 128°13'119.5
2018-Sep-13 22:00N 52°14' W 128°15'917.8
2018-Sep-13 21:30N 52°18' W 128°28'816.7
2018-Sep-13 21:03N 52°25' W 128°29'118.7
2018-Sep-13 21:00N 52°26' W 128°29'918.6
2018-Sep-13 20:30N 52°36' W 128°28'8217.2
2018-Sep-13 15:44N 53°42' W 129°48'519.5
2018-Sep-13 15:30N 53°45' W 129°53'919.7
2018-Sep-13 15:03N 53°52' W 130°03'120.0
2018-Sep-13 15:00N 53°52' W 130°05'1718.1
2018-Sep-13 14:03N 54°06' W 130°22'118.7
2018-Sep-13 14:00N 54°07' W 130°23'918.5
2018-Sep-13 13:30N 54°15' W 130°31'818.0
2018-Sep-13 13:03N 54°22' W 130°37'118.5
2018-Sep-13 13:00N 54°23' W 130°37'918.8
2018-Sep-13 12:30N 54°32' W 130°40'818.1
2018-Sep-13 12:02N 54°40' W 130°47'117.7
2018-Sep-13 12:00N 54°40' W 130°48'  

Dump ship's entire track history